createdAt,value
2023-02-11T00:06:50.779Z,83.51
2023-02-11T00:17:12.137Z,83.60
2023-02-11T00:27:33.534Z,83.79
2023-02-11T00:37:55.082Z,83.23
2023-02-11T00:48:16.451Z,83.52
2023-02-11T00:58:37.987Z,83.18
2023-02-11T01:08:59.368Z,83.71
2023-02-11T01:19:20.751Z,83.87
2023-02-11T01:29:42.137Z,84.17
2023-02-11T01:40:06.342Z,84.23
2023-02-11T01:50:27.749Z,83.49
2023-02-11T02:00:49.578Z,84.21
2023-02-11T02:11:11.065Z,84.16
2023-02-11T02:21:41.533Z,84.46
2023-02-11T02:32:21.785Z,84.24
2023-02-11T02:42:43.891Z,84.75
2023-02-11T02:53:17.564Z,84.59
2023-02-11T03:03:45.660Z,84.64
2023-02-11T03:14:10.280Z,85.56
2023-02-11T03:24:33.324Z,85.29
2023-02-11T03:34:57.896Z,85.62
2023-02-11T03:45:21.546Z,85.40
2023-02-11T03:55:43.860Z,85.72
2023-02-11T04:06:05.358Z,86.00
2023-02-11T04:16:26.778Z,86.90
2023-02-11T04:26:48.166Z,86.54
2023-02-11T04:37:09.596Z,86.64
2023-02-11T04:47:31.059Z,87.64
2023-02-11T04:57:52.517Z,87.44
2023-02-11T05:08:13.871Z,88.13
2023-02-11T05:18:37.358Z,87.99
2023-02-11T05:28:58.736Z,88.42
2023-02-11T05:39:20.158Z,89.49
2023-02-11T05:49:41.498Z,90.31
2023-02-11T06:00:04.220Z,91.82
2023-02-11T06:10:25.826Z,92.06
2023-02-11T06:20:47.168Z,91.64
2023-02-11T06:31:09.739Z,91.53
2023-02-11T06:41:31.320Z,91.46
2023-02-11T06:51:52.681Z,91.01
2023-02-11T07:02:14.206Z,91.29
2023-02-11T07:12:35.680Z,90.88
2023-02-11T07:22:57.121Z,90.58
2023-02-11T07:33:18.477Z,90.33
2023-02-11T07:43:40.009Z,89.85
2023-02-11T07:54:02.358Z,89.16
2023-02-11T08:04:23.763Z,89.10
2023-02-11T08:14:45.173Z,88.87
2023-02-11T08:25:06.648Z,88.94
2023-02-11T08:35:28.101Z,88.50
2023-02-11T08:45:49.736Z,88.47
2023-02-11T08:56:13.399Z,88.71
2023-02-11T09:06:34.952Z,90.96
2023-02-11T09:16:57.457Z,91.02
2023-02-11T09:27:18.839Z,92.20
2023-02-11T09:37:40.263Z,93.72
2023-02-11T09:48:06.375Z,93.47
2023-02-11T09:58:29.614Z,93.44
2023-02-11T10:09:06.776Z,93.42
2023-02-11T10:19:37.496Z,93.10
2023-02-11T10:30:28.429Z,91.94
2023-02-11T10:40:50.201Z,91.47
2023-02-11T10:51:29.055Z,91.04
2023-02-11T11:01:52.403Z,90.31
2023-02-11T11:12:35.033Z,90.78
2023-02-11T11:23:15.866Z,89.85
2023-02-11T11:33:37.352Z,89.26
2023-02-11T11:44:00.474Z,88.49
2023-02-11T11:54:23.462Z,87.81
2023-02-11T12:04:55.407Z,87.55
2023-02-11T12:15:26.004Z,88.18
2023-02-11T12:25:53.646Z,87.63
2023-02-11T12:36:19.936Z,87.64
2023-02-11T12:46:56.883Z,87.99
2023-02-11T12:57:21.988Z,87.74
2023-02-11T13:07:45.104Z,87.80
2023-02-11T13:18:21.891Z,87.39
2023-02-11T13:28:43.277Z,87.49
2023-02-11T13:39:06.777Z,87.87
2023-02-11T13:49:35.268Z,88.18
2023-02-11T13:59:58.872Z,87.88
2023-02-11T14:10:43.206Z,87.67
2023-02-11T14:21:17.089Z,87.23
2023-02-11T14:31:57.650Z,87.04
2023-02-11T14:42:22.527Z,86.99
2023-02-11T14:52:44.244Z,87.30
2023-02-11T15:03:05.643Z,86.47
2023-02-11T15:13:31.062Z,86.65
2023-02-11T15:24:00.490Z,86.42
2023-02-11T15:34:21.890Z,86.68
2023-02-11T15:44:43.476Z,87.17
2023-02-11T15:55:05.064Z,87.17
2023-02-11T16:05:31.358Z,86.94
2023-02-11T16:15:55.169Z,87.15
2023-02-11T16:26:33.339Z,87.10
2023-02-11T16:36:54.697Z,87.42
2023-02-11T16:47:26.657Z,87.60
2023-02-11T16:57:48.052Z,87.42
2023-02-11T17:08:09.828Z,87.93
2023-02-11T17:18:31.204Z,87.75
2023-02-11T17:28:52.600Z,87.80
2023-02-11T17:39:14.411Z,88.22
2023-02-11T17:49:36.250Z,88.33
2023-02-11T17:59:59.490Z,88.27
2023-02-11T18:10:20.862Z,88.46
2023-02-11T18:20:43.192Z,88.85
2023-02-11T18:31:05.286Z,88.75
2023-02-11T18:41:26.941Z,89.20
2023-02-11T18:51:48.399Z,89.22
2023-02-11T19:02:10.837Z,89.11
2023-02-11T19:12:33.144Z,89.21
2023-02-11T19:22:54.604Z,89.10
2023-02-11T19:33:15.998Z,88.96
2023-02-11T19:43:39.749Z,89.05
2023-02-11T19:54:01.371Z,88.73
2023-02-11T20:04:24.612Z,88.87
2023-02-11T20:14:46.009Z,88.61
2023-02-11T20:25:07.535Z,88.96
2023-02-11T20:35:28.876Z,89.24
2023-02-11T20:45:50.717Z,89.36
2023-02-11T20:56:12.435Z,89.86
2023-02-11T21:06:35.957Z,89.55
2023-02-11T21:16:57.505Z,89.43
2023-02-11T21:27:19.027Z,89.87
2023-02-11T21:37:40.568Z,89.82
2023-02-11T21:48:01.961Z,90.26
2023-02-11T21:58:23.590Z,90.49
2023-02-11T22:08:45.025Z,91.79
2023-02-11T22:19:08.378Z,92.77
2023-02-11T22:29:29.894Z,93.36
2023-02-11T22:39:51.297Z,94.89
2023-02-11T22:50:12.696Z,95.45
2023-02-11T23:00:41.543Z,96.41
2023-02-11T23:11:07.602Z,96.01
2023-02-11T23:21:30.494Z,96.49
2023-02-11T23:31:52.095Z,96.26
2023-02-11T23:42:13.574Z,96.78
2023-02-11T23:52:35.021Z,97.21
